sensor_id;sensor_type;location;lat;lon;timestamp;temperature;humidity
28177;DHT22;15461;41.652;9.378;2023-05-16T00:00:19;17.50;99.90
28177;DHT22;15461;41.652;9.378;2023-05-16T00:02:45;17.40;99.90
28177;DHT22;15461;41.652;9.378;2023-05-16T00:05:11;17.20;99.90
28177;DHT22;15461;41.652;9.378;2023-05-16T00:07:57;17.20;99.90
28177;DHT22;15461;41.652;9.378;2023-05-16T00:10:23;17.10;99.90
28177;DHT22;15461;41.652;9.378;2023-05-16T00:12:49;17.00;99.90
28177;DHT22;15461;41.652;9.378;2023-05-16T00:15:18;17.10;99.90
28177;DHT22;15461;41.652;9.378;2023-05-16T00:17:45;17.10;99.90
28177;DHT22;15461;41.652;9.378;2023-05-16T00:20:14;17.10;99.90
28177;DHT22;15461;41.652;9.378;2023-05-16T00:22:42;17.10;99.90
28177;DHT22;15461;41.652;9.378;2023-05-16T00:25:08;17.00;99.90
28177;DHT22;15461;41.652;9.378;2023-05-16T00:27:35;17.00;99.90
28177;DHT22;15461;41.652;9.378;2023-05-16T00:30:04;17.00;99.90
28177;DHT22;15461;41.652;9.378;2023-05-16T00:32:31;16.90;99.90
28177;DHT22;15461;41.652;9.378;2023-05-16T00:35:00;16.80;99.90
28177;DHT22;15461;41.652;9.378;2023-05-16T00:37:26;16.80;99.90
28177;DHT22;15461;41.652;9.378;2023-05-16T00:39:53;16.80;99.90
28177;DHT22;15461;41.652;9.378;2023-05-16T00:42:20;16.90;99.90
28177;DHT22;15461;41.652;9.378;2023-05-16T00:44:47;17.00;99.90
28177;DHT22;15461;41.652;9.378;2023-05-16T00:47:14;17.10;99.90
28177;DHT22;15461;41.652;9.378;2023-05-16T00:49:41;17.30;99.90
28177;DHT22;15461;41.652;9.378;2023-05-16T00:52:07;17.40;99.90
28177;DHT22;15461;41.652;9.378;2023-05-16T00:54:33;17.50;99.90
28177;DHT22;15461;41.652;9.378;2023-05-16T00:56:59;17.50;99.90
28177;DHT22;15461;41.652;9.378;2023-05-16T00:59:26;17.60;99.90
28177;DHT22;15461;41.652;9.378;2023-05-16T01:01:52;17.70;99.90
28177;DHT22;15461;41.652;9.378;2023-05-16T01:04:19;17.80;99.90
28177;DHT22;15461;41.652;9.378;2023-05-16T01:06:46;17.90;99.90
28177;DHT22;15461;41.652;9.378;2023-05-16T01:09:13;17.90;99.90
28177;DHT22;15461;41.652;9.378;2023-05-16T01:15:00;18.00;99.90
28177;DHT22;15461;41.652;9.378;2023-05-16T01:17:49;18.10;99.90
28177;DHT22;15461;41.652;9.378;2023-05-16T01:22:58;18.00;99.90
28177;DHT22;15461;41.652;9.378;2023-05-16T01:28:01;17.90;99.90
28177;DHT22;15461;41.652;9.378;2023-05-16T01:30:33;17.90;99.90
28177;DHT22;15461;41.652;9.378;2023-05-16T01:33:03;17.80;99.90
28177;DHT22;15461;41.652;9.378;2023-05-16T01:35:29;17.80;99.90
28177;DHT22;15461;41.652;9.378;2023-05-16T01:38:19;17.70;99.90
28177;DHT22;15461;41.652;9.378;2023-05-16T01:40:58;17.60;99.90
28177;DHT22;15461;41.652;9.378;2023-05-16T01:43:43;17.50;99.90
28177;DHT22;15461;41.652;9.378;2023-05-16T01:46:15;17.50;99.90
28177;DHT22;15461;41.652;9.378;2023-05-16T01:48:58;17.40;99.90
28177;DHT22;15461;41.652;9.378;2023-05-16T01:51:28;17.30;99.90
28177;DHT22;15461;41.652;9.378;2023-05-16T01:54:05;17.20;99.90
28177;DHT22;15461;41.652;9.378;2023-05-16T01:56:36;17.10;99.90
28177;DHT22;15461;41.652;9.378;2023-05-16T01:59:03;16.90;99.90
28177;DHT22;15461;41.652;9.378;2023-05-16T02:01:31;16.70;99.90
28177;DHT22;15461;41.652;9.378;2023-05-16T02:03:57;16.50;99.90
28177;DHT22;15461;41.652;9.378;2023-05-16T02:06:24;16.40;99.90
28177;DHT22;15461;41.652;9.378;2023-05-16T02:08:50;16.30;99.90
28177;DHT22;15461;41.652;9.378;2023-05-16T02:11:17;16.20;99.90
28177;DHT22;15461;41.652;9.378;2023-05-16T02:13:43;16.10;99.90
28177;DHT22;15461;41.652;9.378;2023-05-16T02:16:12;15.90;99.90
28177;DHT22;15461;41.652;9.378;2023-05-16T02:18:38;15.80;99.90
28177;DHT22;15461;41.652;9.378;2023-05-16T02:21:04;15.70;99.90
28177;DHT22;15461;41.652;9.378;2023-05-16T02:23:31;15.60;99.90
28177;DHT22;15461;41.652;9.378;2023-05-16T02:25:59;15.40;99.90
28177;DHT22;15461;41.652;9.378;2023-05-16T02:28:25;15.30;99.90
28177;DHT22;15461;41.652;9.378;2023-05-16T02:31:00;15.30;99.90
28177;DHT22;15461;41.652;9.378;2023-05-16T02:33:27;15.10;99.90
28177;DHT22;15461;41.652;9.378;2023-05-16T02:35:53;15.00;99.90
28177;DHT22;15461;41.652;9.378;2023-05-16T02:38:19;14.90;99.90
28177;DHT22;15461;41.652;9.378;2023-05-16T02:40:48;14.90;99.90
28177;DHT22;15461;41.652;9.378;2023-05-16T02:43:15;14.80;99.90
28177;DHT22;15461;41.652;9.378;2023-05-16T02:45:41;14.80;99.90
28177;DHT22;15461;41.652;9.378;2023-05-16T02:48:07;14.80;99.90
28177;DHT22;15461;41.652;9.378;2023-05-16T02:50:34;14.70;99.90
28177;DHT22;15461;41.652;9.378;2023-05-16T02:53:01;14.70;99.90
28177;DHT22;15461;41.652;9.378;2023-05-16T02:55:28;14.70;99.90
28177;DHT22;15461;41.652;9.378;2023-05-16T02:57:54;14.70;99.90
28177;DHT22;15461;41.652;9.378;2023-05-16T03:00:20;14.70;99.90
28177;DHT22;15461;41.652;9.378;2023-05-16T03:02:46;14.70;99.90
28177;DHT22;15461;41.652;9.378;2023-05-16T03:05:12;14.70;99.90
28177;DHT22;15461;41.652;9.378;2023-05-16T03:07:39;14.70;99.90
28177;DHT22;15461;41.652;9.378;2023-05-16T03:10:05;14.80;99.90
28177;DHT22;15461;41.652;9.378;2023-05-16T03:12:31;14.80;99.90
28177;DHT22;15461;41.652;9.378;2023-05-16T03:14:57;14.80;99.90
28177;DHT22;15461;41.652;9.378;2023-05-16T03:17:23;14.80;99.90
28177;DHT22;15461;41.652;9.378;2023-05-16T03:19:50;14.80;99.90
28177;DHT22;15461;41.652;9.378;2023-05-16T03:22:16;14.90;99.90
28177;DHT22;15461;41.652;9.378;2023-05-16T03:24:42;14.90;99.90
28177;DHT22;15461;41.652;9.378;2023-05-16T03:27:10;14.90;99.90
28177;DHT22;15461;41.652;9.378;2023-05-16T03:29:36;15.00;99.90
28177;DHT22;15461;41.652;9.378;2023-05-16T03:32:02;15.00;99.90
28177;DHT22;15461;41.652;9.378;2023-05-16T03:34:28;15.10;99.90
28177;DHT22;15461;41.652;9.378;2023-05-16T03:36:54;15.10;99.90
28177;DHT22;15461;41.652;9.378;2023-05-16T03:39:20;15.10;99.90
28177;DHT22;15461;41.652;9.378;2023-05-16T03:41:46;15.10;99.90
28177;DHT22;15461;41.652;9.378;2023-05-16T03:44:12;15.10;99.90
28177;DHT22;15461;41.652;9.378;2023-05-16T03:46:38;15.10;99.90
28177;DHT22;15461;41.652;9.378;2023-05-16T03:49:04;15.20;99.90
28177;DHT22;15461;41.652;9.378;2023-05-16T03:51:30;15.20;99.90
28177;DHT22;15461;41.652;9.378;2023-05-16T03:53:56;15.20;99.90
28177;DHT22;15461;41.652;9.378;2023-05-16T03:56:22;15.30;99.90
28177;DHT22;15461;41.652;9.378;2023-05-16T03:58:48;15.30;99.90
28177;DHT22;15461;41.652;9.378;2023-05-16T04:01:15;15.30;99.90
28177;DHT22;15461;41.652;9.378;2023-05-16T04:03:40;15.40;99.90
28177;DHT22;15461;41.652;9.378;2023-05-16T04:06:07;15.40;99.90
28177;DHT22;15461;41.652;9.378;2023-05-16T04:08:33;15.60;99.90
28177;DHT22;15461;41.652;9.378;2023-05-16T04:10:59;15.70;99.90
28177;DHT22;15461;41.652;9.378;2023-05-16T04:13:25;15.90;99.90
28177;DHT22;15461;41.652;9.378;2023-05-16T04:15:50;16.10;99.90
28177;DHT22;15461;41.652;9.378;2023-05-16T04:18:17;16.10;99.90
28177;DHT22;15461;41.652;9.378;2023-05-16T04:20:43;16.30;99.90
28177;DHT22;15461;41.652;9.378;2023-05-16T04:23:09;16.30;99.90
28177;DHT22;15461;41.652;9.378;2023-05-16T04:25:36;16.40;99.90
28177;DHT22;15461;41.652;9.378;2023-05-16T04:28:02;16.30;99.90
28177;DHT22;15461;41.652;9.378;2023-05-16T04:30:28;16.30;99.90
28177;DHT22;15461;41.652;9.378;2023-05-16T04:32:54;16.20;99.90
28177;DHT22;15461;41.652;9.378;2023-05-16T04:35:21;16.20;99.90
28177;DHT22;15461;41.652;9.378;2023-05-16T04:37:47;16.10;99.90
28177;DHT22;15461;41.652;9.378;2023-05-16T04:40:13;16.10;99.90
28177;DHT22;15461;41.652;9.378;2023-05-16T04:42:40;16.00;99.90
28177;DHT22;15461;41.652;9.378;2023-05-16T04:45:06;16.00;99.90
28177;DHT22;15461;41.652;9.378;2023-05-16T04:47:35;15.90;99.90
28177;DHT22;15461;41.652;9.378;2023-05-16T04:50:03;15.90;99.90
28177;DHT22;15461;41.652;9.378;2023-05-16T04:52:29;15.90;99.90
28177;DHT22;15461;41.652;9.378;2023-05-16T04:54:55;15.90;99.90
28177;DHT22;15461;41.652;9.378;2023-05-16T04:57:20;16.00;99.90
28177;DHT22;15461;41.652;9.378;2023-05-16T04:59:46;15.90;99.90
28177;DHT22;15461;41.652;9.378;2023-05-16T05:02:12;16.00;99.90
28177;DHT22;15461;41.652;9.378;2023-05-16T05:04:38;16.00;99.90
28177;DHT22;15461;41.652;9.378;2023-05-16T05:07:04;16.00;99.90
28177;DHT22;15461;41.652;9.378;2023-05-16T05:09:30;16.00;99.90
28177;DHT22;15461;41.652;9.378;2023-05-16T05:11:56;16.10;99.90
28177;DHT22;15461;41.652;9.378;2023-05-16T05:14:21;16.10;99.90
28177;DHT22;15461;41.652;9.378;2023-05-16T05:16:47;16.20;99.90
28177;DHT22;15461;41.652;9.378;2023-05-16T05:19:13;16.20;99.90
28177;DHT22;15461;41.652;9.378;2023-05-16T05:21:39;16.10;99.90
28177;DHT22;15461;41.652;9.378;2023-05-16T05:24:05;16.20;99.90
28177;DHT22;15461;41.652;9.378;2023-05-16T05:26:31;16.30;99.90
28177;DHT22;15461;41.652;9.378;2023-05-16T05:28:57;16.30;99.90
28177;DHT22;15461;41.652;9.378;2023-05-16T05:31:23;16.40;99.90
28177;DHT22;15461;41.652;9.378;2023-05-16T05:33:49;16.50;99.90
28177;DHT22;15461;41.652;9.378;2023-05-16T05:36:15;16.60;99.90
28177;DHT22;15461;41.652;9.378;2023-05-16T05:38:41;16.70;99.90
28177;DHT22;15461;41.652;9.378;2023-05-16T05:41:06;16.90;99.90
28177;DHT22;15461;41.652;9.378;2023-05-16T05:43:32;17.10;99.90
28177;DHT22;15461;41.652;9.378;2023-05-16T05:45:59;17.20;99.90
28177;DHT22;15461;41.652;9.378;2023-05-16T05:48:25;17.40;99.90
28177;DHT22;15461;41.652;9.378;2023-05-16T05:50:51;17.60;99.90
28177;DHT22;15461;41.652;9.378;2023-05-16T05:53:17;17.80;99.90
28177;DHT22;15461;41.652;9.378;2023-05-16T05:55:43;17.90;99.90
28177;DHT22;15461;41.652;9.378;2023-05-16T05:58:09;18.00;99.90
28177;DHT22;15461;41.652;9.378;2023-05-16T06:00:35;18.00;99.90
28177;DHT22;15461;41.652;9.378;2023-05-16T06:03:01;18.10;99.90
28177;DHT22;15461;41.652;9.378;2023-05-16T06:05:27;18.10;99.90
28177;DHT22;15461;41.652;9.378;2023-05-16T06:07:53;18.20;99.90
28177;DHT22;15461;41.652;9.378;2023-05-16T06:10:19;18.10;99.90
28177;DHT22;15461;41.652;9.378;2023-05-16T06:12:46;18.10;99.90
28177;DHT22;15461;41.652;9.378;2023-05-16T06:15:12;18.20;99.90
28177;DHT22;15461;41.652;9.378;2023-05-16T06:17:38;18.40;99.90
28177;DHT22;15461;41.652;9.378;2023-05-16T06:20:06;18.50;99.90
28177;DHT22;15461;41.652;9.378;2023-05-16T06:22:33;18.70;99.90
28177;DHT22;15461;41.652;9.378;2023-05-16T06:25:01;18.80;99.90
28177;DHT22;15461;41.652;9.378;2023-05-16T06:27:28;19.00;99.90
28177;DHT22;15461;41.652;9.378;2023-05-16T06:29:53;18.90;99.90
28177;DHT22;15461;41.652;9.378;2023-05-16T06:32:19;18.80;99.90
28177;DHT22;15461;41.652;9.378;2023-05-16T06:34:47;18.80;99.90
28177;DHT22;15461;41.652;9.378;2023-05-16T06:37:13;18.80;99.90
28177;DHT22;15461;41.652;9.378;2023-05-16T06:39:38;18.80;99.90
28177;DHT22;15461;41.652;9.378;2023-05-16T06:42:04;18.80;99.90
28177;DHT22;15461;41.652;9.378;2023-05-16T06:44:36;18.80;99.90
28177;DHT22;15461;41.652;9.378;2023-05-16T06:47:02;18.90;99.90
28177;DHT22;15461;41.652;9.378;2023-05-16T06:49:28;19.00;99.90
28177;DHT22;15461;41.652;9.378;2023-05-16T06:51:58;19.10;99.90
28177;DHT22;15461;41.652;9.378;2023-05-16T06:54:24;19.10;99.90
28177;DHT22;15461;41.652;9.378;2023-05-16T06:56:49;19.00;99.90
28177;DHT22;15461;41.652;9.378;2023-05-16T06:59:15;19.00;99.90
28177;DHT22;15461;41.652;9.378;2023-05-16T07:01:41;19.00;99.90
28177;DHT22;15461;41.652;9.378;2023-05-16T07:04:07;19.10;99.90
28177;DHT22;15461;41.652;9.378;2023-05-16T07:06:33;19.00;99.90
28177;DHT22;15461;41.652;9.378;2023-05-16T07:08:59;19.00;99.90
28177;DHT22;15461;41.652;9.378;2023-05-16T07:11:25;19.00;99.90
28177;DHT22;15461;41.652;9.378;2023-05-16T07:13:51;19.00;99.90
28177;DHT22;15461;41.652;9.378;2023-05-16T07:16:16;19.10;99.90
28177;DHT22;15461;41.652;9.378;2023-05-16T07:18:42;19.00;99.90
28177;DHT22;15461;41.652;9.378;2023-05-16T07:21:08;19.00;99.90
28177;DHT22;15461;41.652;9.378;2023-05-16T07:23:34;18.90;99.90
28177;DHT22;15461;41.652;9.378;2023-05-16T07:26:03;18.90;99.90
28177;DHT22;15461;41.652;9.378;2023-05-16T07:28:29;18.90;99.90
28177;DHT22;15461;41.652;9.378;2023-05-16T07:30:55;18.90;99.90
28177;DHT22;15461;41.652;9.378;2023-05-16T07:33:29;19.00;99.90
28177;DHT22;15461;41.652;9.378;2023-05-16T07:35:55;19.10;99.90
28177;DHT22;15461;41.652;9.378;2023-05-16T07:38:21;19.20;99.90
28177;DHT22;15461;41.652;9.378;2023-05-16T07:40:47;19.30;99.90
28177;DHT22;15461;41.652;9.378;2023-05-16T07:43:13;19.50;99.90
28177;DHT22;15461;41.652;9.378;2023-05-16T07:45:38;19.80;99.90
28177;DHT22;15461;41.652;9.378;2023-05-16T07:48:04;20.00;99.90
28177;DHT22;15461;41.652;9.378;2023-05-16T07:50:30;20.20;99.90
28177;DHT22;15461;41.652;9.378;2023-05-16T07:52:56;20.30;99.90
28177;DHT22;15461;41.652;9.378;2023-05-16T07:55:22;20.30;99.90
28177;DHT22;15461;41.652;9.378;2023-05-16T07:57:49;20.40;99.90
28177;DHT22;15461;41.652;9.378;2023-05-16T08:00:16;20.30;99.90
28177;DHT22;15461;41.652;9.378;2023-05-16T08:02:42;20.30;99.90
28177;DHT22;15461;41.652;9.378;2023-05-16T08:05:08;20.30;99.90
28177;DHT22;15461;41.652;9.378;2023-05-16T08:07:34;20.30;99.90
28177;DHT22;15461;41.652;9.378;2023-05-16T08:10:00;20.30;99.90
28177;DHT22;15461;41.652;9.378;2023-05-16T08:12:26;20.20;99.90
28177;DHT22;15461;41.652;9.378;2023-05-16T08:14:52;20.10;99.90
28177;DHT22;15461;41.652;9.378;2023-05-16T08:17:18;20.00;99.90
28177;DHT22;15461;41.652;9.378;2023-05-16T08:19:44;19.90;99.90
28177;DHT22;15461;41.652;9.378;2023-05-16T08:22:09;19.80;99.90
28177;DHT22;15461;41.652;9.378;2023-05-16T08:24:35;19.70;99.90
28177;DHT22;15461;41.652;9.378;2023-05-16T08:27:01;19.70;99.90
28177;DHT22;15461;41.652;9.378;2023-05-16T08:29:27;19.70;99.90
28177;DHT22;15461;41.652;9.378;2023-05-16T08:31:53;19.70;99.90
28177;DHT22;15461;41.652;9.378;2023-05-16T08:34:19;19.70;99.90
28177;DHT22;15461;41.652;9.378;2023-05-16T08:36:45;19.70;99.90
28177;DHT22;15461;41.652;9.378;2023-05-16T08:39:11;19.70;99.90
28177;DHT22;15461;41.652;9.378;2023-05-16T08:41:37;19.80;99.90
28177;DHT22;15461;41.652;9.378;2023-05-16T08:44:03;19.80;99.90
28177;DHT22;15461;41.652;9.378;2023-05-16T08:46:31;19.80;99.90
28177;DHT22;15461;41.652;9.378;2023-05-16T08:48:59;19.90;99.90
28177;DHT22;15461;41.652;9.378;2023-05-16T08:51:27;20.00;99.90
28177;DHT22;15461;41.652;9.378;2023-05-16T08:54:01;20.00;99.90
28177;DHT22;15461;41.652;9.378;2023-05-16T08:56:28;20.00;99.90
28177;DHT22;15461;41.652;9.378;2023-05-16T08:58:54;19.90;99.90
28177;DHT22;15461;41.652;9.378;2023-05-16T09:01:22;19.70;99.90
28177;DHT22;15461;41.652;9.378;2023-05-16T09:03:49;19.60;99.90
28177;DHT22;15461;41.652;9.378;2023-05-16T09:06:16;19.50;99.90
28177;DHT22;15461;41.652;9.378;2023-05-16T09:08:42;19.30;99.90
28177;DHT22;15461;41.652;9.378;2023-05-16T09:11:08;19.10;99.90
28177;DHT22;15461;41.652;9.378;2023-05-16T09:13:34;19.00;99.90
28177;DHT22;15461;41.652;9.378;2023-05-16T09:16:09;18.80;99.90
28177;DHT22;15461;41.652;9.378;2023-05-16T09:18:36;18.70;99.90
28177;DHT22;15461;41.652;9.378;2023-05-16T09:21:04;18.60;99.90
28177;DHT22;15461;41.652;9.378;2023-05-16T09:23:30;18.40;99.90
28177;DHT22;15461;41.652;9.378;2023-05-16T09:25:57;18.30;99.90
28177;DHT22;15461;41.652;9.378;2023-05-16T09:28:24;18.20;99.90
28177;DHT22;15461;41.652;9.378;2023-05-16T09:30:51;18.10;99.90
28177;DHT22;15461;41.652;9.378;2023-05-16T09:33:18;18.10;99.90
28177;DHT22;15461;41.652;9.378;2023-05-16T09:35:43;18.10;99.90
28177;DHT22;15461;41.652;9.378;2023-05-16T09:38:14;18.20;99.90
28177;DHT22;15461;41.652;9.378;2023-05-16T09:40:41;18.20;99.90
28177;DHT22;15461;41.652;9.378;2023-05-16T09:43:07;18.20;99.90
28177;DHT22;15461;41.652;9.378;2023-05-16T09:45:36;18.30;99.90
28177;DHT22;15461;41.652;9.378;2023-05-16T09:48:07;18.50;99.90
28177;DHT22;15461;41.652;9.378;2023-05-16T09:50:36;18.80;99.90
28177;DHT22;15461;41.652;9.378;2023-05-16T09:53:03;19.10;99.90
28177;DHT22;15461;41.652;9.378;2023-05-16T09:55:29;19.30;99.90
28177;DHT22;15461;41.652;9.378;2023-05-16T09:57:55;19.50;99.90
28177;DHT22;15461;41.652;9.378;2023-05-16T10:00:22;19.50;99.90
28177;DHT22;15461;41.652;9.378;2023-05-16T10:02:56;19.40;99.90
28177;DHT22;15461;41.652;9.378;2023-05-16T10:05:25;19.40;99.90
28177;DHT22;15461;41.652;9.378;2023-05-16T10:07:54;19.20;99.90
28177;DHT22;15461;41.652;9.378;2023-05-16T10:10:22;19.00;99.90
28177;DHT22;15461;41.652;9.378;2023-05-16T10:12:49;19.00;99.90
28177;DHT22;15461;41.652;9.378;2023-05-16T10:15:16;18.80;99.90
28177;DHT22;15461;41.652;9.378;2023-05-16T10:17:44;18.70;99.90
28177;DHT22;15461;41.652;9.378;2023-05-16T10:20:12;18.70;99.90
28177;DHT22;15461;41.652;9.378;2023-05-16T10:22:43;18.60;99.90
28177;DHT22;15461;41.652;9.378;2023-05-16T10:25:35;18.40;99.90
28177;DHT22;15461;41.652;9.378;2023-05-16T10:28:01;18.40;99.90
28177;DHT22;15461;41.652;9.378;2023-05-16T10:30:29;18.30;99.90
28177;DHT22;15461;41.652;9.378;2023-05-16T10:32:56;18.20;99.90
28177;DHT22;15461;41.652;9.378;2023-05-16T10:35:23;18.20;99.90
28177;DHT22;15461;41.652;9.378;2023-05-16T10:37:50;18.20;99.90
28177;DHT22;15461;41.652;9.378;2023-05-16T10:40:17;18.20;99.90
28177;DHT22;15461;41.652;9.378;2023-05-16T10:43:00;18.10;99.90
28177;DHT22;15461;41.652;9.378;2023-05-16T10:45:27;18.30;99.90
28177;DHT22;15461;41.652;9.378;2023-05-16T10:48:02;18.40;99.90
28177;DHT22;15461;41.652;9.378;2023-05-16T10:50:44;18.60;99.90
28177;DHT22;15461;41.652;9.378;2023-05-16T10:53:31;18.80;99.90
28177;DHT22;15461;41.652;9.378;2023-05-16T11:01:15;19.80;99.90
28177;DHT22;15461;41.652;9.378;2023-05-16T11:04:07;19.90;99.90
28177;DHT22;15461;41.652;9.378;2023-05-16T11:06:34;19.90;99.90
28177;DHT22;15461;41.652;9.378;2023-05-16T11:14:04;19.20;99.90
28177;DHT22;15461;41.652;9.378;2023-05-16T11:16:30;19.10;99.90
28177;DHT22;15461;41.652;9.378;2023-05-16T11:19:06;19.20;99.90
28177;DHT22;15461;41.652;9.378;2023-05-16T11:22:04;19.30;99.90
28177;DHT22;15461;41.652;9.378;2023-05-16T11:24:31;19.50;99.90
28177;DHT22;15461;41.652;9.378;2023-05-16T11:27:01;19.40;99.90
28177;DHT22;15461;41.652;9.378;2023-05-16T11:29:31;19.40;99.90
28177;DHT22;15461;41.652;9.378;2023-05-16T11:32:02;19.40;99.90
28177;DHT22;15461;41.652;9.378;2023-05-16T11:34:31;19.20;99.90
28177;DHT22;15461;41.652;9.378;2023-05-16T11:37:00;19.10;99.90
28177;DHT22;15461;41.652;9.378;2023-05-16T11:39:30;19.00;99.90
28177;DHT22;15461;41.652;9.378;2023-05-16T11:41:56;19.10;99.90
28177;DHT22;15461;41.652;9.378;2023-05-16T11:44:22;19.40;99.90
28177;DHT22;15461;41.652;9.378;2023-05-16T11:46:53;19.80;99.90
28177;DHT22;15461;41.652;9.378;2023-05-16T11:49:19;20.30;99.90
28177;DHT22;15461;41.652;9.378;2023-05-16T11:51:45;20.50;99.90
28177;DHT22;15461;41.652;9.378;2023-05-16T11:54:11;20.60;99.90
28177;DHT22;15461;41.652;9.378;2023-05-16T11:56:41;20.80;99.90
28177;DHT22;15461;41.652;9.378;2023-05-16T11:59:07;20.80;99.90
28177;DHT22;15461;41.652;9.378;2023-05-16T12:01:35;20.60;99.90
28177;DHT22;15461;41.652;9.378;2023-05-16T12:04:15;20.50;99.90
28177;DHT22;15461;41.652;9.378;2023-05-16T12:06:42;20.30;99.90
28177;DHT22;15461;41.652;9.378;2023-05-16T12:09:13;20.30;99.90
28177;DHT22;15461;41.652;9.378;2023-05-16T12:11:43;20.10;99.90
28177;DHT22;15461;41.652;9.378;2023-05-16T12:14:12;20.00;99.90
28177;DHT22;15461;41.652;9.378;2023-05-16T12:16:39;20.00;99.90
28177;DHT22;15461;41.652;9.378;2023-05-16T12:19:09;20.10;99.90
28177;DHT22;15461;41.652;9.378;2023-05-16T12:21:37;20.10;99.90
28177;DHT22;15461;41.652;9.378;2023-05-16T12:24:03;20.00;99.90
28177;DHT22;15461;41.652;9.378;2023-05-16T12:26:31;20.00;99.90
28177;DHT22;15461;41.652;9.378;2023-05-16T12:28:59;20.00;99.90
28177;DHT22;15461;41.652;9.378;2023-05-16T12:31:28;20.10;99.90
28177;DHT22;15461;41.652;9.378;2023-05-16T12:33:58;20.20;99.90
28177;DHT22;15461;41.652;9.378;2023-05-16T12:36:24;20.30;99.90
28177;DHT22;15461;41.652;9.378;2023-05-16T12:38:53;20.30;99.90
28177;DHT22;15461;41.652;9.378;2023-05-16T12:41:20;20.20;99.90
28177;DHT22;15461;41.652;9.378;2023-05-16T12:43:47;20.20;99.90
28177;DHT22;15461;41.652;9.378;2023-05-16T12:46:14;20.20;99.90
28177;DHT22;15461;41.652;9.378;2023-05-16T12:48:40;20.20;99.90
28177;DHT22;15461;41.652;9.378;2023-05-16T12:51:17;20.10;99.90
28177;DHT22;15461;41.652;9.378;2023-05-16T12:53:48;20.30;99.90
28177;DHT22;15461;41.652;9.378;2023-05-16T12:56:14;20.50;99.90
28177;DHT22;15461;41.652;9.378;2023-05-16T12:58:41;20.70;99.90
28177;DHT22;15461;41.652;9.378;2023-05-16T13:01:07;20.80;99.90
28177;DHT22;15461;41.652;9.378;2023-05-16T13:03:34;20.70;99.90
28177;DHT22;15461;41.652;9.378;2023-05-16T13:06:01;20.70;99.90
28177;DHT22;15461;41.652;9.378;2023-05-16T13:08:29;20.60;99.90
28177;DHT22;15461;41.652;9.378;2023-05-16T13:10:55;20.50;99.90
28177;DHT22;15461;41.652;9.378;2023-05-16T13:13:21;20.50;99.90
28177;DHT22;15461;41.652;9.378;2023-05-16T13:15:47;20.40;99.90
28177;DHT22;15461;41.652;9.378;2023-05-16T13:18:13;20.40;99.90
28177;DHT22;15461;41.652;9.378;2023-05-16T13:20:39;20.30;99.90
28177;DHT22;15461;41.652;9.378;2023-05-16T13:23:06;20.20;99.90
28177;DHT22;15461;41.652;9.378;2023-05-16T13:25:33;20.10;99.90
28177;DHT22;15461;41.652;9.378;2023-05-16T13:27:59;20.10;99.90
28177;DHT22;15461;41.652;9.378;2023-05-16T13:30:25;20.10;99.90
28177;DHT22;15461;41.652;9.378;2023-05-16T13:32:51;20.20;99.90
28177;DHT22;15461;41.652;9.378;2023-05-16T13:35:17;20.20;99.90
28177;DHT22;15461;41.652;9.378;2023-05-16T13:37:44;20.10;99.90
28177;DHT22;15461;41.652;9.378;2023-05-16T13:40:10;20.10;99.90
28177;DHT22;15461;41.652;9.378;2023-05-16T13:42:36;20.10;99.90
28177;DHT22;15461;41.652;9.378;2023-05-16T13:45:04;20.10;99.90
28177;DHT22;15461;41.652;9.378;2023-05-16T13:47:30;20.10;99.90
28177;DHT22;15461;41.652;9.378;2023-05-16T13:49:57;20.00;99.90
28177;DHT22;15461;41.652;9.378;2023-05-16T13:52:24;20.00;99.90
28177;DHT22;15461;41.652;9.378;2023-05-16T13:54:50;20.00;99.90
28177;DHT22;15461;41.652;9.378;2023-05-16T13:57:16;20.10;99.90
28177;DHT22;15461;41.652;9.378;2023-05-16T13:59:42;20.10;99.90
28177;DHT22;15461;41.652;9.378;2023-05-16T14:02:08;20.10;99.90
28177;DHT22;15461;41.652;9.378;2023-05-16T14:04:34;20.10;99.90
28177;DHT22;15461;41.652;9.378;2023-05-16T14:07:00;20.10;99.90
28177;DHT22;15461;41.652;9.378;2023-05-16T14:09:26;20.10;99.90
28177;DHT22;15461;41.652;9.378;2023-05-16T14:11:52;20.10;99.90
28177;DHT22;15461;41.652;9.378;2023-05-16T14:14:17;20.00;99.90
28177;DHT22;15461;41.652;9.378;2023-05-16T14:16:43;20.00;99.90
28177;DHT22;15461;41.652;9.378;2023-05-16T14:19:11;20.10;99.90
28177;DHT22;15461;41.652;9.378;2023-05-16T14:21:37;20.10;99.90
28177;DHT22;15461;41.652;9.378;2023-05-16T14:24:03;20.00;99.90
28177;DHT22;15461;41.652;9.378;2023-05-16T14:26:29;20.10;99.90
28177;DHT22;15461;41.652;9.378;2023-05-16T14:28:57;20.10;99.90
28177;DHT22;15461;41.652;9.378;2023-05-16T14:31:22;20.20;99.90
28177;DHT22;15461;41.652;9.378;2023-05-16T14:33:48;20.20;99.90
28177;DHT22;15461;41.652;9.378;2023-05-16T14:36:15;20.30;99.90
28177;DHT22;15461;41.652;9.378;2023-05-16T14:38:41;20.30;99.90
28177;DHT22;15461;41.652;9.378;2023-05-16T14:41:07;20.30;99.90
28177;DHT22;15461;41.652;9.378;2023-05-16T14:43:33;20.30;99.90
28177;DHT22;15461;41.652;9.378;2023-05-16T14:45:59;20.20;99.90
28177;DHT22;15461;41.652;9.378;2023-05-16T14:48:25;20.10;99.90
28177;DHT22;15461;41.652;9.378;2023-05-16T14:50:51;20.10;99.90
28177;DHT22;15461;41.652;9.378;2023-05-16T14:53:17;20.10;99.90
28177;DHT22;15461;41.652;9.378;2023-05-16T14:55:43;20.00;99.90
28177;DHT22;15461;41.652;9.378;2023-05-16T14:58:09;20.00;99.90
28177;DHT22;15461;41.652;9.378;2023-05-16T15:00:36;20.00;99.90
28177;DHT22;15461;41.652;9.378;2023-05-16T15:03:02;20.00;99.90
28177;DHT22;15461;41.652;9.378;2023-05-16T15:05:28;20.00;99.90
28177;DHT22;15461;41.652;9.378;2023-05-16T15:07:54;20.00;99.90
28177;DHT22;15461;41.652;9.378;2023-05-16T15:10:20;20.00;99.90
28177;DHT22;15461;41.652;9.378;2023-05-16T15:12:46;20.10;99.90
28177;DHT22;15461;41.652;9.378;2023-05-16T15:15:11;20.10;99.90
28177;DHT22;15461;41.652;9.378;2023-05-16T15:17:38;20.10;99.90
28177;DHT22;15461;41.652;9.378;2023-05-16T15:20:06;20.10;99.90
28177;DHT22;15461;41.652;9.378;2023-05-16T15:22:33;20.00;99.90
28177;DHT22;15461;41.652;9.378;2023-05-16T15:25:00;20.00;99.90
28177;DHT22;15461;41.652;9.378;2023-05-16T15:27:27;20.00;99.90
28177;DHT22;15461;41.652;9.378;2023-05-16T15:29:53;19.90;99.90
28177;DHT22;15461;41.652;9.378;2023-05-16T15:32:19;19.80;99.90
28177;DHT22;15461;41.652;9.378;2023-05-16T15:34:47;19.90;99.90
28177;DHT22;15461;41.652;9.378;2023-05-16T15:37:13;19.90;99.90
28177;DHT22;15461;41.652;9.378;2023-05-16T15:39:39;19.90;99.90
28177;DHT22;15461;41.652;9.378;2023-05-16T15:42:07;19.90;99.90
28177;DHT22;15461;41.652;9.378;2023-05-16T15:44:33;19.90;99.90
28177;DHT22;15461;41.652;9.378;2023-05-16T15:46:59;19.90;99.90
28177;DHT22;15461;41.652;9.378;2023-05-16T15:49:26;19.80;99.90